sensor_id;sensor_type;location;lat;lon;timestamp;pressure;altitude;pressure_sealevel;temperature;humidity
53699;BME280;39591;53.952;27.612;2023-03-01T00:01:24;1015.4;;;2.5;74.9
53699;BME280;39591;53.952;27.612;2023-03-01T00:06:37;1015.3;;;2.5;74.7
53699;BME280;39591;53.952;27.612;2023-03-01T00:11:43;1015.3;;;2.6;74.5
53699;BME280;39591;53.952;27.612;2023-03-01T00:16:59;1015.2;;;2.6;74.4
53699;BME280;39591;53.952;27.612;2023-03-01T00:21:43;1015.3;;;2.7;74.2
53699;BME280;39591;53.952;27.612;2023-03-01T00:26:37;1015.2;;;2.7;74
53699;BME280;39591;53.952;27.612;2023-03-01T00:31:59;1015.3;;;2.7;73.9
53699;BME280;39591;53.952;27.612;2023-03-01T00:36:43;1015.2;;;2.8;73.9
53699;BME280;39591;53.952;27.612;2023-03-01T00:41:59;1015.1;;;2.8;73.6
53699;BME280;39591;53.952;27.612;2023-03-01T00:46:24;1015;;;2.8;73.4
53699;BME280;39591;53.952;27.612;2023-03-01T00:51:10;1015;;;2.9;73.2
53699;BME280;39591;53.952;27.612;2023-03-01T00:56:31;1014.9;;;2.8;73.2
53699;BME280;39591;53.952;27.612;2023-03-01T01:01:41;1014.9;;;2.9;72.9
53699;BME280;39591;53.952;27.612;2023-03-01T01:06:59;1014.7;;;2.9;72.7
53699;BME280;39591;53.952;27.612;2023-03-01T01:11:59;1014.6;;;2.8;72.5
53699;BME280;39591;53.952;27.612;2023-03-01T01:16:37;1014.7;;;2.9;72.4
53699;BME280;39591;53.952;27.612;2023-03-01T01:21:10;1014.6;;;2.9;72.3
53699;BME280;39591;53.952;27.612;2023-03-01T01:26:22;1014.6;;;2.9;72.1
53699;BME280;39591;53.952;27.612;2023-03-01T01:31:42;1014.7;;;2.9;72.1
53699;BME280;39591;53.952;27.612;2023-03-01T01:36:59;1014.7;;;2.9;71.9
53699;BME280;39591;53.952;27.612;2023-03-01T01:41:22;1014.6;;;2.9;71.9
53699;BME280;39591;53.952;27.612;2023-03-01T01:46:37;1014.6;;;2.9;72
53699;BME280;39591;53.952;27.612;2023-03-01T01:51:22;1014.6;;;3;72
53699;BME280;39591;53.952;27.612;2023-03-01T01:56:44;1014.7;;;3;71.6
53699;BME280;39591;53.952;27.612;2023-03-01T02:02:00;1014.7;;;2.9;71.3
53699;BME280;39591;53.952;27.612;2023-03-01T02:06:26;1014.7;;;2.9;71.4
53699;BME280;39591;53.952;27.612;2023-03-01T02:11:09;1014.7;;;2.9;71.1
53699;BME280;39591;53.952;27.612;2023-03-01T02:16:23;1014.6;;;2.9;70.9
53699;BME280;39591;53.952;27.612;2023-03-01T02:21:29;1014.6;;;2.9;70.9
53699;BME280;39591;53.952;27.612;2023-03-01T02:26:59;1014.5;;;2.9;70.9
53699;BME280;39591;53.952;27.612;2023-03-01T02:31:37;1014.5;;;2.9;70.7
53699;BME280;39591;53.952;27.612;2023-03-01T02:36:32;1014.4;;;2.9;70.5
53699;BME280;39591;53.952;27.612;2023-03-01T02:41:09;1014.4;;;2.9;70.3
53699;BME280;39591;53.952;27.612;2023-03-01T02:47:01;1014.4;;;2.9;70.1
53699;BME280;39591;53.952;27.612;2023-03-01T02:52:04;1014.5;;;2.8;70
53699;BME280;39591;53.952;27.612;2023-03-01T02:56:09;1014.5;;;2.8;70
53699;BME280;39591;53.952;27.612;2023-03-01T03:01:09;1014.4;;;2.8;69.6
53699;BME280;39591;53.952;27.612;2023-03-01T03:06:46;1014.5;;;2.8;69.3
53699;BME280;39591;53.952;27.612;2023-03-01T03:11:43;1014.6;;;2.7;69.3
53699;BME280;39591;53.952;27.612;2023-03-01T03:16:59;1014.5;;;2.7;69.2
53699;BME280;39591;53.952;27.612;2023-03-01T03:21:23;1014.6;;;2.6;69.3
53699;BME280;39591;53.952;27.612;2023-03-01T03:26:23;1014.7;;;2.6;69.2
53699;BME280;39591;53.952;27.612;2023-03-01T03:31:31;1014.6;;;2.6;69.2
53699;BME280;39591;53.952;27.612;2023-03-01T03:36:43;1014.7;;;2.6;69.1
53699;BME280;39591;53.952;27.612;2023-03-01T03:41:59;1014.8;;;2.6;68.8
53699;BME280;39591;53.952;27.612;2023-03-01T03:46:23;1014.8;;;2.5;68.9
53699;BME280;39591;53.952;27.612;2023-03-01T03:51:35;1014.8;;;2.5;68.7
53699;BME280;39591;53.952;27.612;2023-03-01T03:56:09;1014.8;;;2.5;68.8
53699;BME280;39591;53.952;27.612;2023-03-01T04:01:41;1014.8;;;2.4;68.9
53699;BME280;39591;53.952;27.612;2023-03-01T04:06:57;1014.9;;;2.4;69.1
53699;BME280;39591;53.952;27.612;2023-03-01T04:11:23;1014.9;;;2.4;69.3
53699;BME280;39591;53.952;27.612;2023-03-01T04:16:24;1014.9;;;2.3;69.8
53699;BME280;39591;53.952;27.612;2023-03-01T04:21:09;1015;;;2.3;70.2
53699;BME280;39591;53.952;27.612;2023-03-01T04:26:43;1014.9;;;2.3;70
53699;BME280;39591;53.952;27.612;2023-03-01T04:31:59;1014.9;;;2.3;69.7
53699;BME280;39591;53.952;27.612;2023-03-01T04:36:23;1014.9;;;2.2;69.9
53699;BME280;39591;53.952;27.612;2023-03-01T04:41:24;1015;;;2.1;72.9
53699;BME280;39591;53.952;27.612;2023-03-01T04:46:21;1015.1;;;2;76.7
53699;BME280;39591;53.952;27.612;2023-03-01T04:51:43;1015;;;1.9;77.2
53699;BME280;39591;53.952;27.612;2023-03-01T04:56:57;1015;;;1.9;76.4
53699;BME280;39591;53.952;27.612;2023-03-01T05:01:09;1015.1;;;1.9;75
53699;BME280;39591;53.952;27.612;2023-03-01T05:06:09;1015.2;;;2;74.5
53699;BME280;39591;53.952;27.612;2023-03-01T05:11:35;1015.3;;;2;73.8
53699;BME280;39591;53.952;27.612;2023-03-01T05:16:41;1015.4;;;2.1;72.2
53699;BME280;39591;53.952;27.612;2023-03-01T05:21:55;1015.5;;;2.1;71.4
53699;BME280;39591;53.952;27.612;2023-03-01T05:26:29;1015.5;;;2;71
53699;BME280;39591;53.952;27.612;2023-03-01T05:31:35;1015.4;;;2.1;70.3
53699;BME280;39591;53.952;27.612;2023-03-01T05:36:19;1015.5;;;2.2;69.8
53699;BME280;39591;53.952;27.612;2023-03-01T05:41:41;1015.6;;;2.2;69.9
53699;BME280;39591;53.952;27.612;2023-03-01T05:46:59;1015.6;;;2.2;70.3
53699;BME280;39591;53.952;27.612;2023-03-01T05:51:33;1015.8;;;2.2;70.8
53699;BME280;39591;53.952;27.612;2023-03-01T05:56:33;1016;;;2;73.7
53699;BME280;39591;53.952;27.612;2023-03-01T06:01:10;1016.1;;;1.6;74.3
53699;BME280;39591;53.952;27.612;2023-03-01T06:06:41;1016.2;;;1.3;72.7
53699;BME280;39591;53.952;27.612;2023-03-01T06:11:59;1016.3;;;1.3;69.6
53699;BME280;39591;53.952;27.612;2023-03-01T06:16:43;1016.3;;;1.3;68
53699;BME280;39591;53.952;27.612;2023-03-01T06:21:35;1016.4;;;1.3;67
53699;BME280;39591;53.952;27.612;2023-03-01T06:26:09;1016.4;;;1.3;66.6
53699;BME280;39591;53.952;27.612;2023-03-01T06:31:19;1016.5;;;1.3;66.3
53699;BME280;39591;53.952;27.612;2023-03-01T06:36:59;1016.6;;;1.3;66.4
53699;BME280;39591;53.952;27.612;2023-03-01T06:41:41;1016.6;;;1.5;66.1
53699;BME280;39591;53.952;27.612;2023-03-01T06:46:35;1016.6;;;1.7;65.7
53699;BME280;39591;53.952;27.612;2023-03-01T06:51:21;1016.6;;;1.9;65.4
53699;BME280;39591;53.952;27.612;2023-03-01T06:56:46;1016.7;;;2.2;64.6
53699;BME280;39591;53.952;27.612;2023-03-01T07:01:59;1016.7;;;2.4;63.9
53699;BME280;39591;53.952;27.612;2023-03-01T07:06:45;1016.7;;;2.6;63.1
53699;BME280;39591;53.952;27.612;2023-03-01T07:11:35;1016.8;;;2.7;62.2
53699;BME280;39591;53.952;27.612;2023-03-01T07:16:37;1016.8;;;2.7;61.1
53699;BME280;39591;53.952;27.612;2023-03-01T07:21:47;1016.9;;;2.7;61
53699;BME280;39591;53.952;27.612;2023-03-01T07:27:03;1016.9;;;2.9;60.4
53699;BME280;39591;53.952;27.612;2023-03-01T07:31:47;1017;;;3;59.2
53699;BME280;39591;53.952;27.612;2023-03-01T07:36:51;1017;;;2.9;58.2
53699;BME280;39591;53.952;27.612;2023-03-01T07:41:37;1017.1;;;3.1;57.7
53699;BME280;39591;53.952;27.612;2023-03-01T07:46:47;1017.1;;;3.2;57.3
53699;BME280;39591;53.952;27.612;2023-03-01T07:52:03;1017.1;;;3.3;57.1
53699;BME280;39591;53.952;27.612;2023-03-01T07:56:47;1017.2;;;3.4;56.8
53699;BME280;39591;53.952;27.612;2023-03-01T08:01:35;1017.2;;;3.5;56.4
53699;BME280;39591;53.952;27.612;2023-03-01T08:06:19;1017.2;;;3.6;56.1
53699;BME280;39591;53.952;27.612;2023-03-01T08:11:45;1017.2;;;3.7;55.7
53699;BME280;39591;53.952;27.612;2023-03-01T08:17:01;1017.3;;;3.6;56
53699;BME280;39591;53.952;27.612;2023-03-01T08:21:33;1017.3;;;3.4;55.8
53699;BME280;39591;53.952;27.612;2023-03-01T08:26:33;1017.3;;;3.2;55.9
53699;BME280;39591;53.952;27.612;2023-03-01T08:31:13;1017.4;;;3.1;55.5
53699;BME280;39591;53.952;27.612;2023-03-01T08:36:47;1017.3;;;3.1;55.3
53699;BME280;39591;53.952;27.612;2023-03-01T08:42:01;1017.4;;;3.3;55.4
53699;BME280;39591;53.952;27.612;2023-03-01T08:46:47;1017.4;;;3.5;54.7
53699;BME280;39591;53.952;27.612;2023-03-01T08:51:35;1017.4;;;3.7;55
53699;BME280;39591;53.952;27.612;2023-03-01T08:56:10;1017.3;;;3.8;54.7
53699;BME280;39591;53.952;27.612;2023-03-01T09:01:45;1017.3;;;3.9;54.8
53699;BME280;39591;53.952;27.612;2023-03-01T09:07:01;1017.3;;;4.1;54.2
53699;BME280;39591;53.952;27.612;2023-03-01T09:11:45;1017.2;;;4.3;52.7
53699;BME280;39591;53.952;27.612;2023-03-01T09:16:35;1017.3;;;4.3;51
53699;BME280;39591;53.952;27.612;2023-03-01T09:21:23;1017.3;;;4.5;49.9
53699;BME280;39591;53.952;27.612;2023-03-01T09:27:01;1017.3;;;4.4;48.8
53699;BME280;39591;53.952;27.612;2023-03-01T09:31:47;1017.4;;;4.3;49.2
53699;BME280;39591;53.952;27.612;2023-03-01T09:36:10;1017.4;;;4.3;49.4
53699;BME280;39591;53.952;27.612;2023-03-01T09:41:50;1017.3;;;4.4;48.3
53699;BME280;39591;53.952;27.612;2023-03-01T09:46:20;1017.4;;;4.5;47.6
53699;BME280;39591;53.952;27.612;2023-03-01T09:52:01;1017.3;;;4.7;48.1
53699;BME280;39591;53.952;27.612;2023-03-01T09:56:52;1017.3;;;4.8;47.9
53699;BME280;39591;53.952;27.612;2023-03-01T10:01:34;1017.2;;;4.9;46.6
53699;BME280;39591;53.952;27.612;2023-03-01T10:06:33;1017.2;;;4.9;46.7
53699;BME280;39591;53.952;27.612;2023-03-01T10:11:20;1017.2;;;5;47
53699;BME280;39591;53.952;27.612;2023-03-01T10:17:00;1017.2;;;5;46.9
53699;BME280;39591;53.952;27.612;2023-03-01T10:21:47;1017.3;;;5;45.4
53699;BME280;39591;53.952;27.612;2023-03-01T10:26:38;1017.3;;;5.2;44.9
53699;BME280;39591;53.952;27.612;2023-03-01T10:31:59;1017.2;;;5.4;44.4
53699;BME280;39591;53.952;27.612;2023-03-01T10:36:09;1017.1;;;5.5;44.4
53699;BME280;39591;53.952;27.612;2023-03-01T10:42:00;1017.1;;;5.6;44.4
53699;BME280;39591;53.952;27.612;2023-03-01T10:46:45;1017.2;;;5.4;44.9
53699;BME280;39591;53.952;27.612;2023-03-01T10:51:31;1017.1;;;5.1;45.2
53699;BME280;39591;53.952;27.612;2023-03-01T10:57:00;1017;;;5;45.4
53699;BME280;39591;53.952;27.612;2023-03-01T11:01:27;1017.1;;;5.1;45
53699;BME280;39591;53.952;27.612;2023-03-01T11:07:00;1017.1;;;5.4;43.9
53699;BME280;39591;53.952;27.612;2023-03-01T11:11:45;1017;;;5.7;42.5
53699;BME280;39591;53.952;27.612;2023-03-01T11:16:34;1016.9;;;6;42
53699;BME280;39591;53.952;27.612;2023-03-01T11:22:01;1016.9;;;6.2;41.4
53699;BME280;39591;53.952;27.612;2023-03-01T11:26:09;1016.9;;;6.1;41
53699;BME280;39591;53.952;27.612;2023-03-01T11:32:00;1016.9;;;6.2;41
53699;BME280;39591;53.952;27.612;2023-03-01T11:36:44;1016.9;;;6.2;40.8
53699;BME280;39591;53.952;27.612;2023-03-01T11:41:33;1016.9;;;6.1;40.5
53699;BME280;39591;53.952;27.612;2023-03-01T11:47:05;1016.9;;;5.9;40.7
53699;BME280;39591;53.952;27.612;2023-03-01T11:51:12;1016.8;;;6;40.9
53699;BME280;39591;53.952;27.612;2023-03-01T11:57:00;1016.9;;;5.9;40.6
53699;BME280;39591;53.952;27.612;2023-03-01T12:02:02;1016.9;;;6;41
53699;BME280;39591;53.952;27.612;2023-03-01T12:06:33;1016.9;;;6;40.4
53699;BME280;39591;53.952;27.612;2023-03-01T12:12:00;1016.9;;;5.9;40.1
53699;BME280;39591;53.952;27.612;2023-03-01T12:16:13;1016.9;;;5.7;40.2
53699;BME280;39591;53.952;27.612;2023-03-01T12:21:50;1016.9;;;5.5;40.2
53699;BME280;39591;53.952;27.612;2023-03-01T12:26:44;1016.9;;;5.6;39.9
53699;BME280;39591;53.952;27.612;2023-03-01T12:31:35;1016.8;;;5.4;40
53699;BME280;39591;53.952;27.612;2023-03-01T12:37:01;1016.8;;;5.4;40.4
53699;BME280;39591;53.952;27.612;2023-03-01T12:41:33;1016.9;;;5.3;40.8
53699;BME280;39591;53.952;27.612;2023-03-01T12:47:01;1016.9;;;5.1;40.9
53699;BME280;39591;53.952;27.612;2023-03-01T12:51:42;1016.9;;;5.1;41
53699;BME280;39591;53.952;27.612;2023-03-01T12:56:31;1016.9;;;5.1;41
53699;BME280;39591;53.952;27.612;2023-03-01T13:02:02;1016.9;;;5;41.3
53699;BME280;39591;53.952;27.612;2023-03-01T13:06:11;1016.8;;;5;41.6
53699;BME280;39591;53.952;27.612;2023-03-01T13:11:59;1016.9;;;5.1;41.3
53699;BME280;39591;53.952;27.612;2023-03-01T13:16:59;1016.8;;;5;41.5
53699;BME280;39591;53.952;27.612;2023-03-01T13:21:29;1016.8;;;5;41.6
53699;BME280;39591;53.952;27.612;2023-03-01T13:27:29;1016.8;;;4.9;41.3
53699;BME280;39591;53.952;27.612;2023-03-01T13:48:15;1016.7;;;4.6;42.7
53699;BME280;39591;53.952;27.612;2023-03-01T14:08:27;1016.6;;;4.4;43.3
53699;BME280;39591;53.952;27.612;2023-03-01T14:14:11;1016.6;;;4.4;43.4
53699;BME280;39591;53.952;27.612;2023-03-01T14:18:42;1016.6;;;4.4;43.7
53699;BME280;39591;53.952;27.612;2023-03-01T14:24:18;1016.6;;;4.3;44.1
53699;BME280;39591;53.952;27.612;2023-03-01T14:28:56;1016.5;;;4.2;44.4
53699;BME280;39591;53.952;27.612;2023-03-01T14:33:31;1016.4;;;4.2;44.7
53699;BME280;39591;53.952;27.612;2023-03-01T14:39:15;1016.4;;;4.2;44.8
53699;BME280;39591;53.952;27.612;2023-03-01T14:43:43;1016.3;;;4.2;44.8
53699;BME280;39591;53.952;27.612;2023-03-01T14:48:32;1016.3;;;4.2;45.1
53699;BME280;39591;53.952;27.612;2023-03-01T14:53:56;1016.3;;;4.1;45.2
53699;BME280;39591;53.952;27.612;2023-03-01T14:58:21;1016.2;;;4;45.4
53699;BME280;39591;53.952;27.612;2023-03-01T15:04:10;1016.2;;;4;45.5
53699;BME280;39591;53.952;27.612;2023-03-01T15:08:31;1016.1;;;4;45.6
53699;BME280;39591;53.952;27.612;2023-03-01T15:13:44;1016.1;;;4;45.7
53699;BME280;39591;53.952;27.612;2023-03-01T15:18:56;1016;;;4;45.8
53699;BME280;39591;53.952;27.612;2023-03-01T15:23:21;1016;;;4;46
53699;BME280;39591;53.952;27.612;2023-03-01T15:29:13;1016;;;4;46.4
53699;BME280;39591;53.952;27.612;2023-03-01T15:33:42;1016;;;4;46.5
53699;BME280;39591;53.952;27.612;2023-03-01T15:38:25;1016;;;4;46.5
53699;BME280;39591;53.952;27.612;2023-03-01T15:43:56;1016;;;4;46.6
53699;BME280;39591;53.952;27.612;2023-03-01T15:48:32;1015.9;;;3.9;46.6
53699;BME280;39591;53.952;27.612;2023-03-01T15:54:11;1015.9;;;3.7;47
53699;BME280;39591;53.952;27.612;2023-03-01T15:58:30;1015.9;;;3.6;47.2
53699;BME280;39591;53.952;27.612;2023-03-01T16:03:30;1015.9;;;3.5;47.6
53699;BME280;39591;53.952;27.612;2023-03-01T16:08:56;1015.9;;;3.3;48.1
53699;BME280;39591;53.952;27.612;2023-03-01T16:13:32;1016;;;3.2;48.5
53699;BME280;39591;53.952;27.612;2023-03-01T16:19:10;1016;;;3;48.8
53699;BME280;39591;53.952;27.612;2023-03-01T16:23:43;1016;;;2.9;49.1
53699;BME280;39591;53.952;27.612;2023-03-01T16:28:45;1016.1;;;2.7;49.5
53699;BME280;39591;53.952;27.612;2023-03-01T16:33:56;1016;;;2.6;49.8
53699;BME280;39591;53.952;27.612;2023-03-01T16:38:20;1016;;;2.4;50
53699;BME280;39591;53.952;27.612;2023-03-01T16:44:08;1016;;;2.4;50.2
53699;BME280;39591;53.952;27.612;2023-03-01T16:48:42;1016;;;2.3;50.2
53699;BME280;39591;53.952;27.612;2023-03-01T16:53:20;1016;;;2.2;50.4
53699;BME280;39591;53.952;27.612;2023-03-01T16:58:54;1016;;;2.2;50.4
53699;BME280;39591;53.952;27.612;2023-03-01T17:03:45;1015.9;;;2.1;50.8
53699;BME280;39591;53.952;27.612;2023-03-01T17:09:08;1015.9;;;2;51
53699;BME280;39591;53.952;27.612;2023-03-01T17:13:42;1015.9;;;2;51.5
53699;BME280;39591;53.952;27.612;2023-03-01T17:18:58;1015.9;;;1.9;51.9
53699;BME280;39591;53.952;27.612;2023-03-01T17:24:10;1016;;;1.9;52.2
53699;BME280;39591;53.952;27.612;2023-03-01T17:28:20;1015.9;;;1.8;52.7
53699;BME280;39591;53.952;27.612;2023-03-01T17:33:48;1015.9;;;1.7;53
53699;BME280;39591;53.952;27.612;2023-03-01T17:38:30;1015.9;;;1.7;53.3
53699;BME280;39591;53.952;27.612;2023-03-01T17:43:56;1016;;;1.6;53.6
53699;BME280;39591;53.952;27.612;2023-03-01T17:49:10;1016;;;1.6;53.8
53699;BME280;39591;53.952;27.612;2023-03-01T17:53:30;1016;;;1.6;54
53699;BME280;39591;53.952;27.612;2023-03-01T17:59:00;1015.9;;;1.6;54.5
53699;BME280;39591;53.952;27.612;2023-03-01T18:03:44;1015.9;;;1.6;54.9
53699;BME280;39591;53.952;27.612;2023-03-01T18:09:00;1015.9;;;1.5;55.4
53699;BME280;39591;53.952;27.612;2023-03-01T18:14:00;1015.9;;;1.5;56
53699;BME280;39591;53.952;27.612;2023-03-01T18:18:20;1015.9;;;1.4;56.6
53699;BME280;39591;53.952;27.612;2023-03-01T18:23:58;1015.9;;;1.4;57
53699;BME280;39591;53.952;27.612;2023-03-01T18:28:44;1015.9;;;1.4;57.4
53699;BME280;39591;53.952;27.612;2023-03-01T18:33:48;1015.8;;;1.4;57.5
53699;BME280;39591;53.952;27.612;2023-03-01T18:39:12;1015.8;;;1.3;57.9
53699;BME280;39591;53.952;27.612;2023-03-01T18:43:58;1015.7;;;1.3;58.3
53699;BME280;39591;53.952;27.612;2023-03-01T18:48:56;1015.7;;;1.3;58.4
53699;BME280;39591;53.952;27.612;2023-03-01T18:53:30;1015.8;;;1.3;58.6
53699;BME280;39591;53.952;27.612;2023-03-01T18:59:00;1015.8;;;1.2;58.7
53699;BME280;39591;53.952;27.612;2023-03-01T19:04:12;1015.8;;;1.2;58.8
53699;BME280;39591;53.952;27.612;2023-03-01T19:08:33;1015.7;;;1.2;58.9
53699;BME280;39591;53.952;27.612;2023-03-01T19:14:12;1015.7;;;1.1;59.1
53699;BME280;39591;53.952;27.612;2023-03-01T19:18:20;1015.7;;;1.1;59.3
53699;BME280;39591;53.952;27.612;2023-03-01T19:24:00;1015.7;;;1;59.4
53699;BME280;39591;53.952;27.612;2023-03-01T19:29:10;1015.7;;;1;59.6
53699;BME280;39591;53.952;27.612;2023-03-01T19:33:32;1015.7;;;1;59.9
53699;BME280;39591;53.952;27.612;2023-03-01T19:38:56;1015.8;;;1;60.1
53699;BME280;39591;53.952;27.612;2023-03-01T19:43:42;1015.8;;;1;60.3
53699;BME280;39591;53.952;27.612;2023-03-01T19:48:56;1015.9;;;1;60.6
53699;BME280;39591;53.952;27.612;2023-03-01T19:54:10;1015.8;;;1;60.7
53699;BME280;39591;53.952;27.612;2023-03-01T19:58:20;1015.8;;;1.1;60.7
53699;BME280;39591;53.952;27.612;2023-03-01T20:03:58;1015.9;;;1;61.1
53699;BME280;39591;53.952;27.612;2023-03-01T20:08:40;1015.9;;;1;61.3
53699;BME280;39591;53.952;27.612;2023-03-01T20:13:58;1015.8;;;1;61.3
53699;BME280;39591;53.952;27.612;2023-03-01T20:19:10;1015.8;;;1;61.5
53699;BME280;39591;53.952;27.612;2023-03-01T20:23:32;1015.8;;;0.9;61.8
53699;BME280;39591;53.952;27.612;2023-03-01T20:29:00;1015.9;;;0.9;62
53699;BME280;39591;53.952;27.612;2023-03-01T20:33:58;1015.9;;;0.9;62
53699;BME280;39591;53.952;27.612;2023-03-01T20:39:10;1015.9;;;0.9;62.1
53699;BME280;39591;53.952;27.612;2023-03-01T20:44:10;1015.9;;;0.8;62.3
53699;BME280;39591;53.952;27.612;2023-03-01T20:48:20;1015.9;;;0.8;62.5
53699;BME280;39591;53.952;27.612;2023-03-01T20:53:58;1015.9;;;0.8;62.7
53699;BME280;39591;53.952;27.612;2023-03-01T20:58:20;1016;;;0.8;63
53699;BME280;39591;53.952;27.612;2023-03-01T21:04:12;1015.9;;;0.8;63.3
53699;BME280;39591;53.952;27.612;2023-03-01T21:08:42;1016;;;0.8;63.6
53699;BME280;39591;53.952;27.612;2023-03-01T21:13:20;1015.9;;;0.7;64.1
53699;BME280;39591;53.952;27.612;2023-03-01T21:18:46;1015.8;;;0.7;64.4
53699;BME280;39591;53.952;27.612;2023-03-01T21:23:58;1015.7;;;0.8;64.4
53699;BME280;39591;53.952;27.612;2023-03-01T21:29:12;1015.8;;;0.7;65
53699;BME280;39591;53.952;27.612;2023-03-01T21:33:45;1015.9;;;0.6;65.3
53699;BME280;39591;53.952;27.612;2023-03-01T21:38:32;1015.9;;;0.6;65.6
53699;BME280;39591;53.952;27.612;2023-03-01T21:43:44;1015.9;;;0.6;65.7
53699;BME280;39591;53.952;27.612;2023-03-01T21:48:58;1015.9;;;0.6;66
53699;BME280;39591;53.952;27.612;2023-03-01T21:54:10;1015.9;;;0.5;66.2
53699;BME280;39591;53.952;27.612;2023-03-01T21:58:44;1015.9;;;0.5;66.5
53699;BME280;39591;53.952;27.612;2023-03-01T22:03:20;1015.9;;;0.5;66.5
53699;BME280;39591;53.952;27.612;2023-03-01T22:08:44;1015.9;;;0.4;66.8
53699;BME280;39591;53.952;27.612;2023-03-01T22:13:56;1015.9;;;0.4;67.1
53699;BME280;39591;53.952;27.612;2023-03-01T22:19:10;1016;;;0.5;67.1
53699;BME280;39591;53.952;27.612;2023-03-01T22:23:56;1016;;;0.6;67.3
53699;BME280;39591;53.952;27.612;2023-03-01T22:28:20;1015.9;;;0.7;67.3
53699;BME280;39591;53.952;27.612;2023-03-01T22:33:56;1015.9;;;0.7;67.3
53699;BME280;39591;53.952;27.612;2023-03-01T22:38:56;1015.8;;;0.8;67.3
53699;BME280;39591;53.952;27.612;2023-03-01T22:44:08;1015.7;;;0.9;67.3
53699;BME280;39591;53.952;27.612;2023-03-01T22:48:44;1015.7;;;0.9;67.4
53699;BME280;39591;53.952;27.612;2023-03-01T22:53:20;1015.7;;;1;67.5
53699;BME280;39591;53.952;27.612;2023-03-01T22:58:42;1015.7;;;1;67.3
53699;BME280;39591;53.952;27.612;2023-03-01T23:03:44;1015.7;;;1.1;67.1
53699;BME280;39591;53.952;27.612;2023-03-01T23:09:10;1015.7;;;1.2;67
53699;BME280;39591;53.952;27.612;2023-03-01T23:13:32;1015.7;;;1.2;67
53699;BME280;39591;53.952;27.612;2023-03-01T23:18:20;1015.6;;;1.2;67.2
53699;BME280;39591;53.952;27.612;2023-03-01T23:23:32;1015.5;;;1.2;67.2
53699;BME280;39591;53.952;27.612;2023-03-01T23:28:56;1015.5;;;1.3;67.2
53699;BME280;39591;53.952;27.612;2023-03-01T23:34:10;1015.4;;;1.3;67.1
53699;BME280;39591;53.952;27.612;2023-03-01T23:38:32;1015.4;;;1.4;67.2
53699;BME280;39591;53.952;27.612;2023-03-01T23:43:20;1015.4;;;1.4;67
53699;BME280;39591;53.952;27.612;2023-03-01T23:48:42;1015.4;;;1.4;67
53699;BME280;39591;53.952;27.612;2023-03-01T23:53:56;1015.4;;;1.5;67
53699;BME280;39591;53.952;27.612;2023-03-01T23:59:11;1015.4;;;1.5;67
